createdAt,value
2022-09-11T00:05:00.252Z,13.91
2022-09-11T00:10:07.731Z,13.44
2022-09-11T00:15:12.300Z,13.26
2022-09-11T00:20:16.293Z,12.88
2022-09-11T00:25:21.532Z,13.52
2022-09-11T00:30:25.341Z,13.74
2022-09-11T00:35:30.305Z,13.33
2022-09-11T00:40:35.713Z,13.25
2022-09-11T00:45:42.126Z,13.35
2022-09-11T00:50:46.091Z,13.20
2022-09-11T00:55:54.112Z,13.61
2022-09-11T01:00:58.845Z,13.19
2022-09-11T01:06:03.835Z,12.92
2022-09-11T01:16:49.248Z,13.27
2022-09-11T01:22:11.649Z,13.54
2022-09-11T01:27:40.144Z,13.80
2022-09-11T01:33:07.569Z,13.58
2022-09-11T01:38:18.649Z,13.74
2022-09-11T01:43:29.342Z,13.61
2022-09-11T01:48:39.623Z,13.52
2022-09-11T01:53:50.370Z,14.18
2022-09-11T01:59:01.058Z,13.26
2022-09-11T02:04:10.775Z,13.66
2022-09-11T02:09:19.704Z,13.53
2022-09-11T02:14:29.709Z,13.46
2022-09-11T02:19:34.007Z,13.15
2022-09-11T02:24:38.156Z,13.38
2022-09-11T02:29:44.066Z,13.72
2022-09-11T02:34:49.096Z,13.54
2022-09-11T02:40:08.814Z,13.53
2022-09-11T02:45:28.809Z,13.42
2022-09-11T02:50:42.696Z,13.73
2022-09-11T02:56:03.256Z,13.61
2022-09-11T03:01:11.984Z,13.27
2022-09-11T03:06:19.666Z,13.50
2022-09-11T03:11:23.761Z,13.20
2022-09-11T03:16:29.357Z,12.88
2022-09-11T03:21:35.175Z,13.51
2022-09-11T03:26:39.286Z,13.15
2022-09-11T03:31:45.079Z,13.18
2022-09-11T03:36:49.053Z,13.20
2022-09-11T03:41:54.335Z,12.93
2022-09-11T03:47:01.431Z,12.87
2022-09-11T03:52:05.695Z,13.27
2022-09-11T03:57:09.787Z,13.46
2022-09-11T04:02:16.646Z,13.07
2022-09-11T04:07:21.216Z,12.95
2022-09-11T04:12:26.266Z,13.43
2022-09-11T04:17:32.131Z,13.08
2022-09-11T04:22:36.141Z,13.82
2022-09-11T04:27:40.326Z,13.10
2022-09-11T04:32:50.436Z,12.92
2022-09-11T04:37:54.388Z,13.19
2022-09-11T04:42:58.653Z,14.00
2022-09-11T04:48:04.420Z,13.63
2022-09-11T04:53:08.517Z,13.16
2022-09-11T04:58:12.351Z,13.20
2022-09-11T05:03:18.106Z,13.61
2022-09-11T05:08:25.479Z,13.45
2022-09-11T05:13:36.044Z,13.49
2022-09-11T05:18:45.289Z,13.15
2022-09-11T05:23:50.809Z,13.75
2022-09-11T05:28:56.627Z,13.69
2022-09-11T05:34:03.314Z,13.84
2022-09-11T05:39:10.591Z,14.69
2022-09-11T05:44:16.000Z,14.45
2022-09-11T05:49:21.847Z,14.75
2022-09-11T05:54:26.783Z,14.83
2022-09-11T05:59:31.552Z,14.63
2022-09-11T06:04:36.911Z,14.79
2022-09-11T06:09:40.900Z,15.22
2022-09-11T06:14:45.042Z,14.93
2022-09-11T06:19:51.733Z,14.73
2022-09-11T06:24:55.889Z,14.59
2022-09-11T06:30:00.376Z,14.73
2022-09-11T06:35:06.123Z,14.63
2022-09-11T06:40:13.472Z,14.38
2022-09-11T06:45:23.705Z,14.77
2022-09-11T06:50:29.003Z,14.62
2022-09-11T06:55:43.313Z,14.44
2022-09-11T07:00:52.007Z,14.36
2022-09-11T07:05:57.477Z,14.62
2022-09-11T07:11:05.196Z,15.00
2022-09-11T07:16:13.519Z,15.68
2022-09-11T07:21:23.353Z,15.02
2022-09-11T07:26:32.536Z,14.88
2022-09-11T07:31:42.824Z,14.84
2022-09-11T07:36:51.857Z,14.02
2022-09-11T07:41:57.589Z,13.79
2022-09-11T07:47:06.712Z,13.92
2022-09-11T07:52:18.518Z,13.95
2022-09-11T07:57:28.104Z,13.88
2022-09-11T08:02:32.641Z,14.03
2022-09-11T08:07:37.845Z,14.19
2022-09-11T08:12:43.324Z,14.63
2022-09-11T08:17:47.331Z,14.51
2022-09-11T08:22:52.780Z,14.42
2022-09-11T08:27:56.564Z,14.37
2022-09-11T08:33:01.829Z,14.24
2022-09-11T08:38:07.389Z,14.49
2022-09-11T08:43:22.436Z,14.50
2022-09-11T08:48:37.210Z,14.85
2022-09-11T08:53:43.439Z,15.27
2022-09-11T08:59:04.635Z,15.16
2022-09-11T09:04:26.250Z,15.16
2022-09-11T09:09:42.434Z,15.18
2022-09-11T09:14:55.045Z,15.90
2022-09-11T09:20:06.937Z,15.92
2022-09-11T09:25:21.194Z,16.13
2022-09-11T09:30:27.602Z,15.84
2022-09-11T09:35:40.587Z,15.96
2022-09-11T09:40:56.095Z,15.77
2022-09-11T09:46:11.638Z,16.63
2022-09-11T09:51:15.919Z,17.00
2022-09-11T09:56:24.413Z,15.97
2022-09-11T10:01:46.033Z,16.02
2022-09-11T10:06:53.152Z,15.78
2022-09-11T10:12:04.289Z,15.91
2022-09-11T10:17:20.459Z,15.45
2022-09-11T10:22:32.788Z,15.32
2022-09-11T10:27:44.653Z,14.96
2022-09-11T10:32:49.240Z,15.03
2022-09-11T10:38:06.615Z,15.11
2022-09-11T10:43:24.699Z,15.79
2022-09-11T10:48:28.947Z,16.30
2022-09-11T10:53:37.576Z,16.20
2022-09-11T10:58:47.604Z,16.05
2022-09-11T11:03:52.328Z,15.48
2022-09-11T11:09:06.530Z,14.92
2022-09-11T11:14:32.287Z,14.95
2022-09-11T11:19:56.869Z,15.37
2022-09-11T11:25:14.593Z,14.90
2022-09-11T11:30:22.161Z,16.07
2022-09-11T11:35:33.863Z,15.88
2022-09-11T11:40:43.684Z,16.36
2022-09-11T11:45:53.809Z,16.73
2022-09-11T11:51:03.673Z,17.54
2022-09-11T11:56:15.898Z,17.38
2022-09-11T12:01:25.614Z,17.77
2022-09-11T12:06:30.194Z,18.16
2022-09-11T12:11:35.033Z,18.37
2022-09-11T12:16:40.531Z,17.82
2022-09-11T12:22:06.681Z,17.70
2022-09-11T12:27:52.340Z,17.42
2022-09-11T12:33:01.280Z,18.24
2022-09-11T12:38:22.003Z,18.41
2022-09-11T12:43:46.579Z,18.36
2022-09-11T12:49:17.845Z,17.44
2022-09-11T12:54:24.295Z,17.58
2022-09-11T12:59:32.704Z,17.54
2022-09-11T13:04:38.141Z,17.21
2022-09-11T13:09:48.098Z,17.23
2022-09-11T13:14:53.374Z,17.09
2022-09-11T13:20:21.659Z,17.10
2022-09-11T13:25:28.128Z,16.75
2022-09-11T13:30:32.899Z,15.81
2022-09-11T13:35:40.546Z,14.16
2022-09-11T13:40:49.896Z,13.55
2022-09-11T13:46:16.971Z,13.58
2022-09-11T13:51:25.838Z,13.58
2022-09-11T13:57:05.853Z,13.66
2022-09-11T14:02:28.783Z,13.70
2022-09-11T14:07:42.565Z,14.31
2022-09-11T14:12:53.844Z,14.46
2022-09-11T14:18:02.021Z,14.25
2022-09-11T14:23:09.086Z,14.33
2022-09-11T14:28:36.836Z,14.49
2022-09-11T14:33:41.291Z,14.26
2022-09-11T14:38:48.335Z,14.41
2022-09-11T14:43:52.345Z,14.26
2022-09-11T14:48:56.926Z,14.44
2022-09-11T14:54:02.452Z,14.33
2022-09-11T14:59:06.392Z,14.60
2022-09-11T15:04:14.371Z,14.30
2022-09-11T15:09:19.597Z,14.47
2022-09-11T15:14:52.037Z,14.57
2022-09-11T15:19:50.007Z,15.15
2022-09-11T15:24:56.657Z,15.33
2022-09-11T15:30:00.811Z,14.90
2022-09-11T15:35:05.588Z,14.91
2022-09-11T15:40:11.804Z,14.73
2022-09-11T15:45:15.867Z,14.96
2022-09-11T15:50:24.693Z,14.74
2022-09-11T15:55:30.329Z,15.12
2022-09-11T16:00:35.590Z,14.59
2022-09-11T16:05:42.237Z,15.09
2022-09-11T16:10:47.951Z,14.78
2022-09-11T16:16:02.692Z,13.81
2022-09-11T16:21:07.765Z,13.44
2022-09-11T16:26:17.538Z,13.07
2022-09-11T16:31:21.880Z,12.89
2022-09-11T16:36:25.965Z,12.72
2022-09-11T16:41:31.250Z,12.90
2022-09-11T16:46:35.713Z,12.79
2022-09-11T16:51:39.875Z,12.50
2022-09-11T16:56:46.185Z,12.53
2022-09-11T17:01:52.479Z,12.52
2022-09-11T17:06:56.762Z,12.48
2022-09-11T17:12:04.036Z,13.02
2022-09-11T17:17:07.895Z,13.41
2022-09-11T17:22:11.816Z,13.66
2022-09-11T17:27:17.238Z,12.75
2022-09-11T17:32:28.296Z,12.59
2022-09-11T17:37:33.466Z,12.49
2022-09-11T17:42:38.966Z,12.80
2022-09-11T17:47:43.876Z,12.53
2022-09-11T17:52:47.768Z,12.37
2022-09-11T17:57:56.041Z,12.64
2022-09-11T18:03:00.230Z,12.59
2022-09-11T18:08:04.381Z,13.28
2022-09-11T18:13:09.727Z,13.03
2022-09-11T18:18:14.052Z,13.02
2022-09-11T18:23:19.647Z,13.05
2022-09-11T18:28:25.339Z,12.40
2022-09-11T18:33:29.217Z,12.62
2022-09-11T18:38:33.428Z,12.37
2022-09-11T18:43:39.327Z,12.06
2022-09-11T18:48:44.406Z,12.05
2022-09-11T18:53:52.615Z,11.93
2022-09-11T18:59:00.098Z,11.99
2022-09-11T19:04:08.711Z,12.03
2022-09-11T19:09:14.815Z,12.02
2022-09-11T19:14:20.008Z,11.99
2022-09-11T19:19:23.883Z,11.93
2022-09-11T19:24:30.117Z,12.31
2022-09-11T19:29:36.088Z,11.89
2022-09-11T19:34:46.415Z,11.99
2022-09-11T19:39:52.025Z,12.19
2022-09-11T19:44:57.474Z,11.94
2022-09-11T19:50:01.207Z,12.34
2022-09-11T19:55:05.538Z,12.41
2022-09-11T20:00:11.914Z,11.96
2022-09-11T20:05:16.102Z,12.09
2022-09-11T20:10:20.125Z,12.17
2022-09-11T20:15:25.272Z,12.13
2022-09-11T20:20:29.496Z,11.99
2022-09-11T20:25:33.495Z,12.54
2022-09-11T20:30:40.560Z,12.08
2022-09-11T20:35:44.600Z,12.14
2022-09-11T20:40:48.449Z,11.89
2022-09-11T20:45:55.697Z,12.21
2022-09-11T20:51:02.730Z,12.34
2022-09-11T20:56:09.259Z,12.31
2022-09-11T21:01:17.139Z,12.37
2022-09-11T21:06:25.568Z,12.14
2022-09-11T21:11:31.422Z,12.13
2022-09-11T21:16:36.803Z,12.50
2022-09-11T21:21:40.885Z,12.49
2022-09-11T21:26:46.078Z,12.22
2022-09-11T21:31:51.348Z,12.05
2022-09-11T21:36:55.321Z,12.53
2022-09-11T21:41:59.361Z,12.45
2022-09-11T21:47:04.733Z,12.14
2022-09-11T21:52:08.684Z,12.04
2022-09-11T21:57:12.391Z,12.63
2022-09-11T22:02:17.947Z,12.48
2022-09-11T22:07:23.125Z,12.38
2022-09-11T22:12:26.846Z,12.18
2022-09-11T22:17:32.111Z,12.18
2022-09-11T22:22:37.854Z,12.26
2022-09-11T22:27:41.482Z,12.27
2022-09-11T22:32:46.593Z,12.33
2022-09-11T22:37:50.355Z,12.55
2022-09-11T22:42:54.267Z,12.87
2022-09-11T22:47:59.504Z,12.43
2022-09-11T22:53:03.781Z,12.06
2022-09-11T22:58:07.491Z,12.34
2022-09-11T23:03:12.928Z,12.67
2022-09-11T23:08:16.586Z,12.38
2022-09-11T23:13:20.268Z,12.06
2022-09-11T23:18:26.599Z,12.31
2022-09-11T23:23:30.268Z,12.54
2022-09-11T23:28:35.096Z,12.06
2022-09-11T23:33:40.294Z,13.05
2022-09-11T23:38:45.517Z,12.23
2022-09-11T23:43:49.571Z,11.97
2022-09-11T23:48:54.852Z,12.40
2022-09-11T23:53:58.554Z,12.01
2022-09-11T23:59:02.426Z,12.72
